sensor_id;sensor_type;location;lat;lon;timestamp;pressure;altitude;pressure_sealevel;temperature;humidity
3524;BME280;1776;53.330;11.498;2023-04-21T00:02:22;24249.88;;;-147.39;65.62
3524;BME280;1776;53.330;11.498;2023-04-21T00:04:47;24268.16;;;-147.39;65.76
3524;BME280;1776;53.330;11.498;2023-04-21T00:07:13;24239.72;;;-147.39;65.76
3524;BME280;1776;53.330;11.498;2023-04-21T00:09:40;24221.41;;;-147.39;65.82
3524;BME280;1776;53.330;11.498;2023-04-21T00:12:06;24241.75;;;-147.39;65.72
3524;BME280;1776;53.330;11.498;2023-04-21T00:14:31;24227.50;;;-147.39;65.88
3524;BME280;1776;53.330;11.498;2023-04-21T00:16:56;24253.94;;;-147.39;66.16
3524;BME280;1776;53.330;11.498;2023-04-21T00:19:24;24284.44;;;-147.39;66.18
3524;BME280;1776;53.330;11.498;2023-04-21T00:21:49;24243.78;;;-147.39;66.00
3524;BME280;1776;53.330;11.498;2023-04-21T00:24:15;24225.47;;;-147.39;66.21
3524;BME280;1776;53.330;11.498;2023-04-21T00:26:40;24203.09;;;-147.39;66.24
3524;BME280;1776;53.330;11.498;2023-04-21T00:29:05;24223.44;;;-147.39;66.24
3524;BME280;1776;53.330;11.498;2023-04-21T00:31:31;24211.25;;;-147.39;66.86
3524;BME280;1776;53.330;11.498;2023-04-21T00:33:56;24184.81;;;-147.39;66.52
3524;BME280;1776;53.330;11.498;2023-04-21T00:36:21;24168.53;;;-147.39;66.46
3524;BME280;1776;53.330;11.498;2023-04-21T00:38:49;24199.03;;;-147.39;66.62
3524;BME280;1776;53.330;11.498;2023-04-21T00:41:14;24178.72;;;-147.39;66.72
3524;BME280;1776;53.330;11.498;2023-04-21T00:43:58;24221.41;;;-147.39;66.80
3524;BME280;1776;53.330;11.498;2023-04-21T00:46:23;24199.03;;;-147.39;66.89
3524;BME280;1776;53.330;11.498;2023-04-21T00:48:49;24227.50;;;-147.39;67.34
3524;BME280;1776;53.330;11.498;2023-04-21T00:51:14;24178.72;;;-147.39;66.84
3524;BME280;1776;53.330;11.498;2023-04-21T00:53:40;24197.00;;;-147.39;66.88
3524;BME280;1776;53.330;11.498;2023-04-21T00:56:05;24186.84;;;-147.39;67.15
3524;BME280;1776;53.330;11.498;2023-04-21T00:58:31;24194.97;;;-147.39;67.09
3524;BME280;1776;53.330;11.498;2023-04-21T01:00:57;24172.59;;;-147.39;67.35
3524;BME280;1776;53.330;11.498;2023-04-21T01:03:23;24207.16;;;-147.39;67.58
3524;BME280;1776;53.330;11.498;2023-04-21T01:05:48;24158.38;;;-147.39;67.67
3524;BME280;1776;53.330;11.498;2023-04-21T01:08:14;24176.66;;;-147.39;67.39
3524;BME280;1776;53.330;11.498;2023-04-21T01:10:39;24158.38;;;-147.39;67.79
3524;BME280;1776;53.330;11.498;2023-04-21T01:13:04;24117.72;;;-147.39;67.73
3524;BME280;1776;53.330;11.498;2023-04-21T01:15:30;24127.88;;;-147.39;67.80
3524;BME280;1776;53.330;11.498;2023-04-21T01:17:55;24168.53;;;-147.39;68.00
3524;BME280;1776;53.330;11.498;2023-04-21T01:20:21;24146.16;;;-147.39;67.79
3524;BME280;1776;53.330;11.498;2023-04-21T01:22:46;24152.28;;;-147.39;67.56
3524;BME280;1776;53.330;11.498;2023-04-21T01:25:11;24160.41;;;-147.39;67.52
3524;BME280;1776;53.330;11.498;2023-04-21T01:27:37;24140.06;;;-147.39;67.79
3524;BME280;1776;53.330;11.498;2023-04-21T01:30:05;24154.31;;;-147.39;67.83
3524;BME280;1776;53.330;11.498;2023-04-21T01:32:31;24138.03;;;-147.39;67.59
3524;BME280;1776;53.330;11.498;2023-04-21T01:34:57;24123.81;;;-147.39;67.81
3524;BME280;1776;53.330;11.498;2023-04-21T01:37:26;24140.06;;;-147.39;67.56
3524;BME280;1776;53.330;11.498;2023-04-21T01:39:55;24146.16;;;-147.39;67.61
3524;BME280;1776;53.330;11.498;2023-04-21T01:42:23;24115.66;;;-147.39;67.80
3524;BME280;1776;53.330;11.498;2023-04-21T01:44:49;24176.66;;;-147.39;67.92
3524;BME280;1776;53.330;11.498;2023-04-21T01:47:15;24146.16;;;-147.39;67.46
3524;BME280;1776;53.330;11.498;2023-04-21T01:49:41;24138.03;;;-147.39;67.70
3524;BME280;1776;53.330;11.498;2023-04-21T01:52:07;23977.41;;;-147.39;67.57
3524;BME280;1776;53.330;11.498;2023-04-21T01:54:32;24160.41;;;-147.39;68.05
3524;BME280;1776;53.330;11.498;2023-04-21T01:56:57;24109.56;;;-147.39;68.01
3524;BME280;1776;53.330;11.498;2023-04-21T01:59:23;24133.97;;;-147.39;67.81
3524;BME280;1776;53.330;11.498;2023-04-21T02:01:49;24125.84;;;-147.39;68.26
3524;BME280;1776;53.330;11.498;2023-04-21T02:04:14;24103.47;;;-147.39;68.41
3524;BME280;1776;53.330;11.498;2023-04-21T02:06:39;24119.75;;;-147.39;68.30
3524;BME280;1776;53.330;11.498;2023-04-21T02:09:05;24085.19;;;-147.39;68.54
3524;BME280;1776;53.330;11.498;2023-04-21T02:11:30;24099.41;;;-147.39;68.53
3524;BME280;1776;53.330;11.498;2023-04-21T02:13:56;24093.31;;;-147.39;68.63
3524;BME280;1776;53.330;11.498;2023-04-21T02:16:22;24172.59;;;-147.39;68.76
3524;BME280;1776;53.330;11.498;2023-04-21T02:18:53;24081.09;;;-147.39;68.64
3524;BME280;1776;53.330;11.498;2023-04-21T02:21:21;24109.56;;;-147.39;68.49
3524;BME280;1776;53.330;11.498;2023-04-21T02:23:46;24115.66;;;-147.39;68.61
3524;BME280;1776;53.330;11.498;2023-04-21T02:26:11;24075.00;;;-147.39;68.20
3524;BME280;1776;53.330;11.498;2023-04-21T02:28:37;24070.94;;;-147.39;68.50
3524;BME280;1776;53.330;11.498;2023-04-21T02:31:02;24089.25;;;-147.39;68.61
3524;BME280;1776;53.330;11.498;2023-04-21T02:33:28;24097.38;;;-147.39;68.79
3524;BME280;1776;53.330;11.498;2023-04-21T02:35:53;24097.38;;;-147.39;68.66
3524;BME280;1776;53.330;11.498;2023-04-21T02:38:18;24095.34;;;-147.39;68.30
3524;BME280;1776;53.330;11.498;2023-04-21T02:40:44;24113.63;;;-147.39;68.78
3524;BME280;1776;53.330;11.498;2023-04-21T02:43:09;24081.09;;;-147.39;68.40
3524;BME280;1776;53.330;11.498;2023-04-21T02:45:35;24079.06;;;-147.39;68.32
3524;BME280;1776;53.330;11.498;2023-04-21T02:48:01;24072.97;;;-147.39;68.60
3524;BME280;1776;53.330;11.498;2023-04-21T02:50:26;24115.66;;;-147.39;68.45
3524;BME280;1776;53.330;11.498;2023-04-21T02:52:51;24072.97;;;-147.39;68.36
3524;BME280;1776;53.330;11.498;2023-04-21T02:55:17;24105.50;;;-147.39;68.23
3524;BME280;1776;53.330;11.498;2023-04-21T02:57:42;24034.34;;;-147.39;68.43
3524;BME280;1776;53.330;11.498;2023-04-21T03:00:07;24119.75;;;-147.39;68.46
3524;BME280;1776;53.330;11.498;2023-04-21T03:02:35;24083.13;;;-147.39;68.89
3524;BME280;1776;53.330;11.498;2023-04-21T03:05:01;24070.94;;;-147.39;68.83
3524;BME280;1776;53.330;11.498;2023-04-21T03:07:26;24060.78;;;-147.39;68.34
3524;BME280;1776;53.330;11.498;2023-04-21T03:09:51;24075.00;;;-147.39;68.45
3524;BME280;1776;53.330;11.498;2023-04-21T03:12:17;24064.84;;;-147.39;68.50
3524;BME280;1776;53.330;11.498;2023-04-21T03:14:42;24070.94;;;-147.39;68.55
3524;BME280;1776;53.330;11.498;2023-04-21T03:17:07;24052.63;;;-147.39;68.58
3524;BME280;1776;53.330;11.498;2023-04-21T03:19:32;24046.53;;;-147.39;68.54
3524;BME280;1776;53.330;11.498;2023-04-21T03:21:58;24056.72;;;-147.39;68.51
3524;BME280;1776;53.330;11.498;2023-04-21T03:24:23;24042.47;;;-147.39;68.72
3524;BME280;1776;53.330;11.498;2023-04-21T03:26:48;24079.06;;;-147.39;68.83
3524;BME280;1776;53.330;11.498;2023-04-21T03:29:13;24044.50;;;-147.39;68.91
3524;BME280;1776;53.330;11.498;2023-04-21T03:31:39;24068.91;;;-147.39;69.05
3524;BME280;1776;53.330;11.498;2023-04-21T03:34:04;24052.63;;;-147.39;68.96
3524;BME280;1776;53.330;11.498;2023-04-21T03:36:30;24024.19;;;-147.39;68.62
3524;BME280;1776;53.330;11.498;2023-04-21T03:38:56;24040.44;;;-147.39;68.43
3524;BME280;1776;53.330;11.498;2023-04-21T03:41:22;24062.81;;;-147.39;68.87
3524;BME280;1776;53.330;11.498;2023-04-21T03:43:49;24066.88;;;-147.39;68.63
3524;BME280;1776;53.330;11.498;2023-04-21T03:46:19;24077.03;;;-147.39;68.74
3524;BME280;1776;53.330;11.498;2023-04-21T03:48:45;24040.44;;;-147.39;68.80
3524;BME280;1776;53.330;11.498;2023-04-21T03:51:11;24048.56;;;-147.39;69.03
3524;BME280;1776;53.330;11.498;2023-04-21T03:53:36;24093.31;;;-147.39;68.95
3524;BME280;1776;53.330;11.498;2023-04-21T03:56:02;24054.69;;;-147.39;69.05
3524;BME280;1776;53.330;11.498;2023-04-21T03:58:27;24054.69;;;-147.39;68.90
3524;BME280;1776;53.330;11.498;2023-04-21T04:00:52;24064.84;;;-147.39;68.91
3524;BME280;1776;53.330;11.498;2023-04-21T04:03:18;24052.63;;;-147.39;68.96
3524;BME280;1776;53.330;11.498;2023-04-21T04:05:43;24016.03;;;-147.39;69.33
3524;BME280;1776;53.330;11.498;2023-04-21T04:08:08;24020.09;;;-147.39;69.71
3524;BME280;1776;53.330;11.498;2023-04-21T04:10:33;24011.97;;;-147.39;69.90
3524;BME280;1776;53.330;11.498;2023-04-21T04:12:59;24009.94;;;-147.39;69.71
3524;BME280;1776;53.330;11.498;2023-04-21T04:15:25;23997.75;;;-147.39;69.78
3524;BME280;1776;53.330;11.498;2023-04-21T04:17:50;23991.66;;;-147.39;69.59
3524;BME280;1776;53.330;11.498;2023-04-21T04:20:15;24060.78;;;-147.39;69.38
3524;BME280;1776;53.330;11.498;2023-04-21T04:22:41;24052.63;;;-147.39;69.52
3524;BME280;1776;53.330;11.498;2023-04-21T04:25:06;24024.19;;;-147.39;69.19
3524;BME280;1776;53.330;11.498;2023-04-21T04:27:31;23950.97;;;-147.39;69.61
3524;BME280;1776;53.330;11.498;2023-04-21T04:29:57;24026.22;;;-147.39;69.16
3524;BME280;1776;53.330;11.498;2023-04-21T04:32:23;24020.09;;;-147.39;69.36
3524;BME280;1776;53.330;11.498;2023-04-21T04:34:52;24007.91;;;-147.39;69.17
3524;BME280;1776;53.330;11.498;2023-04-21T04:37:20;24050.59;;;-147.39;69.36
3524;BME280;1776;53.330;11.498;2023-04-21T04:39:46;24044.50;;;-147.39;69.49
3524;BME280;1776;53.330;11.498;2023-04-21T04:42:11;24038.41;;;-147.39;69.44
3524;BME280;1776;53.330;11.498;2023-04-21T04:44:37;24077.03;;;-147.39;68.97
3524;BME280;1776;53.330;11.498;2023-04-21T04:47:02;24054.69;;;-147.39;68.79
3524;BME280;1776;53.330;11.498;2023-04-21T04:49:28;24050.59;;;-147.39;68.94
3524;BME280;1776;53.330;11.498;2023-04-21T04:51:53;24040.44;;;-147.39;69.00
3524;BME280;1776;53.330;11.498;2023-04-21T04:54:19;24056.72;;;-147.39;69.49
3524;BME280;1776;53.330;11.498;2023-04-21T04:56:44;24056.72;;;-147.39;69.41
3524;BME280;1776;53.330;11.498;2023-04-21T04:59:10;24048.56;;;-147.39;69.41
3524;BME280;1776;53.330;11.498;2023-04-21T05:01:35;23987.56;;;-147.39;68.96
3524;BME280;1776;53.330;11.498;2023-04-21T05:04:02;24026.22;;;-147.39;69.27
3524;BME280;1776;53.330;11.498;2023-04-21T05:06:28;24046.53;;;-147.39;68.55
3524;BME280;1776;53.330;11.498;2023-04-21T05:08:53;24020.09;;;-147.39;68.64
3524;BME280;1776;53.330;11.498;2023-04-21T05:11:18;24060.78;;;-147.39;68.47
3524;BME280;1776;53.330;11.498;2023-04-21T05:13:44;24089.25;;;-147.39;67.55
3524;BME280;1776;53.330;11.498;2023-04-21T05:16:09;24154.31;;;-147.39;67.56
3524;BME280;1776;53.330;11.498;2023-04-21T05:18:35;24077.03;;;-147.39;67.48
3524;BME280;1776;53.330;11.498;2023-04-21T05:21:00;24034.34;;;-147.39;68.29
3524;BME280;1776;53.330;11.498;2023-04-21T05:23:26;24058.75;;;-147.39;67.67
3524;BME280;1776;53.330;11.498;2023-04-21T05:25:51;24079.06;;;-147.39;68.19
3524;BME280;1776;53.330;11.498;2023-04-21T05:28:16;24068.91;;;-147.39;67.31
3524;BME280;1776;53.330;11.498;2023-04-21T05:30:42;24087.22;;;-147.39;67.66
3524;BME280;1776;53.330;11.498;2023-04-21T05:33:07;24072.97;;;-147.39;68.07
3524;BME280;1776;53.330;11.498;2023-04-21T05:35:33;24075.00;;;-147.39;67.48
3524;BME280;1776;53.330;11.498;2023-04-21T05:37:59;24093.31;;;-147.39;67.12
3524;BME280;1776;53.330;11.498;2023-04-21T05:40:24;24062.81;;;-147.39;67.55
3524;BME280;1776;53.330;11.498;2023-04-21T05:42:49;24099.41;;;-147.39;67.05
3524;BME280;1776;53.330;11.498;2023-04-21T05:45:14;24113.63;;;-147.39;66.48
3524;BME280;1776;53.330;11.498;2023-04-21T05:47:40;24107.53;;;-147.39;67.21
3524;BME280;1776;53.330;11.498;2023-04-21T05:50:06;24127.88;;;-147.39;66.97
3524;BME280;1776;53.330;11.498;2023-04-21T05:52:31;24144.13;;;-147.39;66.90
3524;BME280;1776;53.330;11.498;2023-04-21T05:54:57;24142.09;;;-147.39;66.25
3524;BME280;1776;53.330;11.498;2023-04-21T05:57:23;24133.97;;;-147.39;66.95
3524;BME280;1776;53.330;11.498;2023-04-21T05:59:48;24129.91;;;-147.39;66.43
3524;BME280;1776;53.330;11.498;2023-04-21T06:02:14;24154.31;;;-147.39;66.19
3524;BME280;1776;53.330;11.498;2023-04-21T06:04:39;24144.13;;;-147.39;66.52
3524;BME280;1776;53.330;11.498;2023-04-21T06:07:05;24168.53;;;-147.39;66.20
3524;BME280;1776;53.330;11.498;2023-04-21T06:09:31;24140.06;;;-147.39;65.89
3524;BME280;1776;53.330;11.498;2023-04-21T06:11:56;24162.44;;;-147.39;65.57
3524;BME280;1776;53.330;11.498;2023-04-21T06:14:22;24182.78;;;-147.39;65.51
3524;BME280;1776;53.330;11.498;2023-04-21T06:16:47;24158.38;;;-147.39;65.67
3524;BME280;1776;53.330;11.498;2023-04-21T06:19:12;24170.56;;;-147.39;65.26
3524;BME280;1776;53.330;11.498;2023-04-21T06:21:37;24203.09;;;-147.39;65.20
3524;BME280;1776;53.330;11.498;2023-04-21T06:24:03;24182.78;;;-147.39;65.17
3524;BME280;1776;53.330;11.498;2023-04-21T06:26:29;24235.63;;;-147.39;64.54
3524;BME280;1776;53.330;11.498;2023-04-21T06:28:54;24262.06;;;-147.39;64.85
3524;BME280;1776;53.330;11.498;2023-04-21T06:31:19;24211.25;;;-147.39;64.42
3524;BME280;1776;53.330;11.498;2023-04-21T06:33:45;24276.31;;;-147.39;64.16
3524;BME280;1776;53.330;11.498;2023-04-21T06:36:10;24243.78;;;-147.39;63.66
3524;BME280;1776;53.330;11.498;2023-04-21T06:38:35;24270.22;;;-147.39;63.71
3524;BME280;1776;53.330;11.498;2023-04-21T06:41:01;24290.53;;;-147.39;63.56
3524;BME280;1776;53.330;11.498;2023-04-21T06:43:28;24276.31;;;-147.39;63.48
3524;BME280;1776;53.330;11.498;2023-04-21T06:45:53;24316.97;;;-147.39;63.36
3524;BME280;1776;53.330;11.498;2023-04-21T06:48:19;24294.59;;;-147.39;63.52
3524;BME280;1776;53.330;11.498;2023-04-21T06:50:44;24294.59;;;-147.39;62.97
3524;BME280;1776;53.330;11.498;2023-04-21T06:53:10;24325.09;;;-147.39;62.37
3524;BME280;1776;53.330;11.498;2023-04-21T06:55:36;24308.84;;;-147.39;62.50
3524;BME280;1776;53.330;11.498;2023-04-21T06:58:01;24335.28;;;-147.39;62.65
3524;BME280;1776;53.330;11.498;2023-04-21T07:00:26;24300.72;;;-147.39;62.62
3524;BME280;1776;53.330;11.498;2023-04-21T07:02:52;24337.31;;;-147.39;62.10
3524;BME280;1776;53.330;11.498;2023-04-21T07:05:17;24373.91;;;-147.39;62.07
3524;BME280;1776;53.330;11.498;2023-04-21T07:07:42;24408.47;;;-147.39;61.31
3524;BME280;1776;53.330;11.498;2023-04-21T07:10:08;24355.59;;;-147.39;61.40
3524;BME280;1776;53.330;11.498;2023-04-21T07:12:33;24363.75;;;-147.39;61.18
3524;BME280;1776;53.330;11.498;2023-04-21T07:14:59;24414.56;;;-147.39;61.19
3524;BME280;1776;53.330;11.498;2023-04-21T07:17:24;24412.53;;;-147.39;60.75
3524;BME280;1776;53.330;11.498;2023-04-21T07:19:49;24465.41;;;-147.39;60.74
3524;BME280;1776;53.330;11.498;2023-04-21T07:22:14;24459.31;;;-147.39;60.16
3524;BME280;1776;53.330;11.498;2023-04-21T07:24:40;24424.75;;;-147.39;60.11
3524;BME280;1776;53.330;11.498;2023-04-21T07:27:05;24451.19;;;-147.39;59.50
3524;BME280;1776;53.330;11.498;2023-04-21T07:29:30;24514.22;;;-147.39;59.61
3524;BME280;1776;53.330;11.498;2023-04-21T07:31:56;24518.28;;;-147.39;59.44
3524;BME280;1776;53.330;11.498;2023-04-21T07:34:22;24497.94;;;-147.39;59.38
3524;BME280;1776;53.330;11.498;2023-04-21T07:36:53;24508.13;;;-147.39;59.23
3524;BME280;1776;53.330;11.498;2023-04-21T07:39:18;24532.50;;;-147.39;58.93
3524;BME280;1776;53.330;11.498;2023-04-21T07:41:44;24550.81;;;-147.39;58.72
3524;BME280;1776;53.330;11.498;2023-04-21T07:44:09;24524.38;;;-147.39;58.73
3524;BME280;1776;53.330;11.498;2023-04-21T07:46:34;24573.19;;;-147.39;58.88
3524;BME280;1776;53.330;11.498;2023-04-21T07:49:00;24587.41;;;-147.39;58.44
3524;BME280;1776;53.330;11.498;2023-04-21T07:51:25;24591.50;;;-147.39;58.12
3524;BME280;1776;53.330;11.498;2023-04-21T07:53:54;24634.19;;;-147.39;57.62
3524;BME280;1776;53.330;11.498;2023-04-21T07:56:19;24685.03;;;-147.39;56.65
3524;BME280;1776;53.330;11.498;2023-04-21T07:58:45;24687.06;;;-147.39;56.80
3524;BME280;1776;53.330;11.498;2023-04-21T08:01:10;24699.28;;;-147.39;56.91
3524;BME280;1776;53.330;11.498;2023-04-21T08:03:35;24713.50;;;-147.39;56.44
3524;BME280;1776;53.330;11.498;2023-04-21T08:06:01;24713.50;;;-147.39;56.35
3524;BME280;1776;53.330;11.498;2023-04-21T08:08:26;24733.84;;;-147.39;55.80
3524;BME280;1776;53.330;11.498;2023-04-21T08:10:52;24768.41;;;-147.39;55.59
3524;BME280;1776;53.330;11.498;2023-04-21T08:13:17;24772.47;;;-147.39;55.37
3524;BME280;1776;53.330;11.498;2023-04-21T08:15:44;24855.84;;;-147.39;54.73
3524;BME280;1776;53.330;11.498;2023-04-21T08:18:09;24843.66;;;-147.39;55.02
3524;BME280;1776;53.330;11.498;2023-04-21T08:20:35;24878.22;;;-147.39;54.28
3524;BME280;1776;53.330;11.498;2023-04-21T08:23:00;24910.75;;;-147.39;53.67
3524;BME280;1776;53.330;11.498;2023-04-21T08:25:26;25002.28;;;-147.39;53.19
3524;BME280;1776;53.330;11.498;2023-04-21T08:27:51;24961.59;;;-147.39;52.54
3524;BME280;1776;53.330;11.498;2023-04-21T08:30:17;25020.59;;;-147.39;51.73
3524;BME280;1776;53.330;11.498;2023-04-21T08:32:42;25061.25;;;-147.39;51.06
3524;BME280;1776;53.330;11.498;2023-04-21T08:35:08;25114.13;;;-147.39;51.18
3524;BME280;1776;53.330;11.498;2023-04-21T08:37:37;25148.72;;;-147.39;50.00
3524;BME280;1776;53.330;11.498;2023-04-21T08:40:04;25142.63;;;-147.39;49.92
3524;BME280;1776;53.330;11.498;2023-04-21T08:42:30;25185.31;;;-147.39;50.10
3524;BME280;1776;53.330;11.498;2023-04-21T08:44:55;25215.84;;;-147.39;48.96
3524;BME280;1776;53.330;11.498;2023-04-21T08:47:20;25264.66;;;-147.39;48.79
3524;BME280;1776;53.330;11.498;2023-04-21T08:49:49;25278.88;;;-147.39;48.90
3524;BME280;1776;53.330;11.498;2023-04-21T08:52:14;25295.16;;;-147.39;48.19
3524;BME280;1776;53.330;11.498;2023-04-21T08:54:40;25325.66;;;-147.39;48.29
3524;BME280;1776;53.330;11.498;2023-04-21T08:57:05;25386.69;;;-147.39;47.50
3524;BME280;1776;53.330;11.498;2023-04-21T08:59:31;25449.72;;;-147.39;46.38
3524;BME280;1776;53.330;11.498;2023-04-21T09:02:16;25547.38;;;-147.39;45.41
3524;BME280;1776;53.330;11.498;2023-04-21T09:04:44;25567.69;;;-147.39;45.73
3524;BME280;1776;53.330;11.498;2023-04-21T09:07:10;25628.72;;;-147.39;45.11
3524;BME280;1776;53.330;11.498;2023-04-21T09:12:18;25602.28;;;-147.39;45.20
3524;BME280;1776;53.330;11.498;2023-04-21T09:14:43;25655.16;;;-147.39;45.00
3524;BME280;1776;53.330;11.498;2023-04-21T09:17:09;25655.16;;;-147.39;44.78
3524;BME280;1776;53.330;11.498;2023-04-21T09:19:34;25769.06;;;-147.39;44.22
3524;BME280;1776;53.330;11.498;2023-04-21T09:22:00;25793.50;;;-147.39;43.83
3524;BME280;1776;53.330;11.498;2023-04-21T09:24:25;25893.16;;;-147.39;43.18
3524;BME280;1776;53.330;11.498;2023-04-21T09:26:51;25830.09;;;-147.39;43.25
3524;BME280;1776;53.330;11.498;2023-04-21T09:29:17;25966.41;;;-147.39;42.36
3524;BME280;1776;53.330;11.498;2023-04-21T09:31:43;26013.19;;;-147.39;42.19
3524;BME280;1776;53.330;11.498;2023-04-21T09:34:20;26049.81;;;-147.39;41.54
3524;BME280;1776;53.330;11.498;2023-04-21T09:36:46;26123.03;;;-147.39;40.53
3524;BME280;1776;53.330;11.498;2023-04-21T09:39:12;26159.66;;;-147.39;40.86
3524;BME280;1776;53.330;11.498;2023-04-21T09:41:37;26147.44;;;-147.39;40.74
3524;BME280;1776;53.330;11.498;2023-04-21T09:44:02;26167.78;;;-147.39;40.92
3524;BME280;1776;53.330;11.498;2023-04-21T09:46:32;26279.69;;;-147.39;40.72
3524;BME280;1776;53.330;11.498;2023-04-21T09:49:00;26344.78;;;-147.39;40.18
3524;BME280;1776;53.330;11.498;2023-04-21T09:51:26;26289.84;;;-147.39;40.65
3524;BME280;1776;53.330;11.498;2023-04-21T09:53:53;26322.41;;;-147.39;40.24
3524;BME280;1776;53.330;11.498;2023-04-21T09:56:23;26302.06;;;-147.39;39.66
3524;BME280;1776;53.330;11.498;2023-04-21T09:58:53;26326.47;;;-147.39;40.55
3524;BME280;1776;53.330;11.498;2023-04-21T10:01:23;26379.38;;;-147.39;40.32
3524;BME280;1776;53.330;11.498;2023-04-21T10:03:51;26405.81;;;-147.39;40.26
3524;BME280;1776;53.330;11.498;2023-04-21T10:06:17;26375.31;;;-147.39;39.05
3524;BME280;1776;53.330;11.498;2023-04-21T10:08:43;26491.25;;;-147.39;39.34
3524;BME280;1776;53.330;11.498;2023-04-21T10:11:09;26560.44;;;-147.39;39.31
3524;BME280;1776;53.330;11.498;2023-04-21T10:13:35;26562.47;;;-147.39;39.40
3524;BME280;1776;53.330;11.498;2023-04-21T10:16:05;26584.84;;;-147.39;38.76
3524;BME280;1776;53.330;11.498;2023-04-21T10:18:35;26674.38;;;-147.39;37.53
3524;BME280;1776;53.330;11.498;2023-04-21T10:21:05;26680.47;;;-147.39;37.69
3524;BME280;1776;53.330;11.498;2023-04-21T10:23:35;26684.53;;;-147.39;37.57
3524;BME280;1776;53.330;11.498;2023-04-21T10:26:03;26721.16;;;-147.39;37.85
3524;BME280;1776;53.330;11.498;2023-04-21T10:31:33;26692.69;;;-147.39;37.46
3524;BME280;1776;53.330;11.498;2023-04-21T10:36:35;26757.78;;;-147.39;37.89
3524;BME280;1776;53.330;11.498;2023-04-21T10:39:06;26814.75;;;-147.39;37.67
3524;BME280;1776;53.330;11.498;2023-04-21T10:41:33;26831.03;;;-147.39;37.10
3524;BME280;1776;53.330;11.498;2023-04-21T10:43:59;26869.69;;;-147.39;36.79
3524;BME280;1776;53.330;11.498;2023-04-21T10:46:44;26928.72;;;-147.39;35.47
3524;BME280;1776;53.330;11.498;2023-04-21T10:49:30;26949.06;;;-147.39;35.36
3524;BME280;1776;53.330;11.498;2023-04-21T10:57:11;27087.41;;;-147.39;35.60
3524;BME280;1776;53.330;11.498;2023-04-21T10:59:37;27079.28;;;-147.39;34.56
3524;BME280;1776;53.330;11.498;2023-04-21T11:02:07;27130.16;;;-147.39;34.82
3524;BME280;1776;53.330;11.498;2023-04-21T11:04:35;27142.38;;;-147.39;34.47
3524;BME280;1776;53.330;11.498;2023-04-21T11:07:11;27158.66;;;-147.39;34.31
3524;BME280;1776;53.330;11.498;2023-04-21T11:09:38;27146.44;;;-147.39;35.10
3524;BME280;1776;53.330;11.498;2023-04-21T11:12:05;27172.88;;;-147.39;34.53
3524;BME280;1776;53.330;11.498;2023-04-21T11:14:32;27164.75;;;-147.39;34.80
3524;BME280;1776;53.330;11.498;2023-04-21T11:16:59;27176.97;;;-147.39;34.27
3524;BME280;1776;53.330;11.498;2023-04-21T11:19:25;27272.59;;;-147.39;34.87
3524;BME280;1776;53.330;11.498;2023-04-21T11:21:52;27170.84;;;-147.39;34.14
3524;BME280;1776;53.330;11.498;2023-04-21T11:24:20;27189.16;;;-147.39;33.30
3524;BME280;1776;53.330;11.498;2023-04-21T11:26:45;27258.34;;;-147.39;33.24
3524;BME280;1776;53.330;11.498;2023-04-21T11:29:11;27290.91;;;-147.39;34.08
3524;BME280;1776;53.330;11.498;2023-04-21T11:31:38;27268.53;;;-147.39;32.72
3524;BME280;1776;53.330;11.498;2023-04-21T11:34:05;27266.50;;;-147.39;33.40
3524;BME280;1776;53.330;11.498;2023-04-21T11:36:32;27284.81;;;-147.39;33.24
3524;BME280;1776;53.330;11.498;2023-04-21T11:38:57;27280.75;;;-147.39;33.12
3524;BME280;1776;53.330;11.498;2023-04-21T11:41:23;27388.59;;;-147.39;33.75
3524;BME280;1776;53.330;11.498;2023-04-21T11:43:50;27331.59;;;-147.39;33.94
3524;BME280;1776;53.330;11.498;2023-04-21T11:46:22;27354.00;;;-147.39;33.18
3524;BME280;1776;53.330;11.498;2023-04-21T11:48:57;27392.66;;;-147.39;33.16
3524;BME280;1776;53.330;11.498;2023-04-21T11:51:22;27394.69;;;-147.39;32.45
3524;BME280;1776;53.330;11.498;2023-04-21T11:53:47;27431.31;;;-147.39;32.91
3524;BME280;1776;53.330;11.498;2023-04-21T11:56:16;27415.03;;;-147.39;34.42
3524;BME280;1776;53.330;11.498;2023-04-21T11:58:44;27474.06;;;-147.39;32.69
3524;BME280;1776;53.330;11.498;2023-04-21T12:01:10;27486.28;;;-147.39;32.22
3524;BME280;1776;53.330;11.498;2023-04-21T12:03:35;27445.56;;;-147.39;32.76
3524;BME280;1776;53.330;11.498;2023-04-21T12:06:01;27431.31;;;-147.39;33.36
3524;BME280;1776;53.330;11.498;2023-04-21T12:08:30;27437.44;;;-147.39;31.94
3524;BME280;1776;53.330;11.498;2023-04-21T12:10:56;27472.03;;;-147.39;31.79
3524;BME280;1776;53.330;11.498;2023-04-21T12:13:24;27467.94;;;-147.39;32.55
3524;BME280;1776;53.330;11.498;2023-04-21T12:15:51;27586.00;;;-147.39;32.42
3524;BME280;1776;53.330;11.498;2023-04-21T12:18:16;27529.00;;;-147.39;32.16
3524;BME280;1776;53.330;11.498;2023-04-21T12:20:48;27586.00;;;-147.39;31.28
3524;BME280;1776;53.330;11.498;2023-04-21T12:23:15;27553.44;;;-147.39;30.96
3524;BME280;1776;53.330;11.498;2023-04-21T12:25:40;27588.03;;;-147.39;31.79
3524;BME280;1776;53.330;11.498;2023-04-21T12:28:07;27616.50;;;-147.39;31.44
3524;BME280;1776;53.330;11.498;2023-04-21T12:30:33;27598.19;;;-147.39;31.25
3524;BME280;1776;53.330;11.498;2023-04-21T12:32:58;27551.38;;;-147.39;32.10
3524;BME280;1776;53.330;11.498;2023-04-21T12:35:24;27624.66;;;-147.39;32.09
3524;BME280;1776;53.330;11.498;2023-04-21T12:37:50;27677.56;;;-147.39;31.33
3524;BME280;1776;53.330;11.498;2023-04-21T12:40:15;27647.03;;;-147.39;31.87
3524;BME280;1776;53.330;11.498;2023-04-21T12:42:40;27675.53;;;-147.39;31.58
3524;BME280;1776;53.330;11.498;2023-04-21T12:45:06;27598.19;;;-147.39;31.66
3524;BME280;1776;53.330;11.498;2023-04-21T12:47:32;27598.19;;;-147.39;32.22
3524;BME280;1776;53.330;11.498;2023-04-21T12:49:57;27651.09;;;-147.39;31.69
3524;BME280;1776;53.330;11.498;2023-04-21T12:52:22;27681.63;;;-147.39;31.88
3524;BME280;1776;53.330;11.498;2023-04-21T12:54:48;27630.75;;;-147.39;31.44
3524;BME280;1776;53.330;11.498;2023-04-21T12:57:13;27569.72;;;-147.39;32.23
3524;BME280;1776;53.330;11.498;2023-04-21T12:59:39;27573.78;;;-147.39;32.57